Terminal Aerodrome Forecast
Issued by NWS Louisville, KY

Home | Current Version | Previous Version | Text Only | Print | Product List | Glossary On
Versions: 1 2 3 4 5 6 7 8 9 10 11 12 13
000
FTUS43 KLMK 031100
TAFLEX
TAF
KLEX 031135Z 0312/0412 VRB03KT P6SM FEW250
     FM031500 19007KT P6SM SCT050 SCT200
     FM040000 17004KT P6SM SCT200=

USA.gov is the U.S. government's official web portal to all federal, state and local government web resources and services.